Cielo Di Vaiano — D5AQ2 — position and weather

sailwx.info

Track history (hours):
 
Tides and Currents Weather Stations Pressure Air Temp Water Temp Dewpoint Dewpoint Depression Visibility Wind Speed Wind Dir Waves Ship Positions

Cielo Di Vaiano

Last reported at 2016-May-27 08:33 UTC. Time now 2016-May-27 08:33 UTC.
Position N 54°56' E 013°23'.

Length 183 m; draft 10.7 m.

Type: Cargo ship. MMSI: 636015421.

Date/timePositionNaut miles runAvg speedWind from/ knotsBaromVisibWave heightAir tempDewpointWater temp
2016-May-27 08:33N 54°56' E 013°23'1312.7
2016-May-27 07:33N 55°00' E 013°44'1212.3
2016-May-27 06:33N 55°05' E 014°04'1212.0
2016-May-27 05:33N 55°14' E 014°16'1312.8
2016-May-27 04:33N 55°24' E 014°30'1312.7
2016-May-27 03:33N 55°32' E 014°49'1313.0
2016-May-27 02:33N 55°38' E 015°09'1312.8
2016-May-27 01:33N 55°41' E 015°31'1312.7
2016-May-27 00:31N 55°44' E 015°54'3712.4
2016-May-26 21:34N 55°53' E 016°57'1212.4
2016-May-26 20:33N 55°55' E 017°19'1212.3
2016-May-26 19:33N 55°58' E 017°40'1212.2
2016-May-26 18:33N 55°56' E 018°02'1312.3
2016-May-26 17:31N 55°53' E 018°24'1212.4
2016-May-26 16:33N 55°50' E 018°44'82 3.9
2016-May-25 19:19N 55°40' E 021°09'0 0.0
2016-May-25 18:30N 55°40' E 021°09'0 0.0
2016-May-25 17:33N 55°40' E 021°09'0 0.0
2016-May-25 16:30N 55°40' E 021°09'0 0.0
2016-May-25 15:33N 55°40' E 021°09'0 0.0
2016-May-25 14:33N 55°40' E 021°09'0 0.0
2016-May-25 13:27N 55°40' E 021°09'0 0.0
2016-May-25 12:34N 55°40' E 021°09'63 2.7
2016-May-24 13:33N 55°05' E 019°38'1413.6
2016-May-24 12:33N 54°51' E 019°38'1312.5
2016-May-24 11:33N 54°40' E 019°49'8 7.4
2016-May-24 10:31N 54°38' E 020°02'7 6.7
2016-May-24 09:31N 54°41' E 020°12'0 0.0
2016-May-24 08:12N 54°41' E 020°12'0 0.0
2016-May-24 07:30N 54°41' E 020°12'0 0.0
2016-May-24 06:33N 54°41' E 020°12'0 0.0
2016-May-24 05:33N 54°41' E 020°12'0 0.0
2016-May-24 04:33N 54°41' E 020°12'0 0.0
2016-May-24 03:33N 54°41' E 020°12'0 0.0
2016-May-24 02:33N 54°41' E 020°12'0 0.0
2016-May-24 01:30N 54°41' E 020°12'0 0.0
2016-May-24 00:33N 54°41' E 020°12'0 0.0
2016-May-23 23:33N 54°41' E 020°12'0 0.0
2016-May-23 22:33N 54°41' E 020°12'0 0.0
2016-May-23 21:33N 54°41' E 020°12'0 0.0
2016-May-23 08:15N 54°41' E 020°12'0 0.0
2016-May-23 07:30N 54°41' E 020°12'0 0.0
2016-May-23 06:30N 54°41' E 020°12'0 0.0
2016-May-23 05:33N 54°41' E 020°12'0 0.0
2016-May-23 04:33N 54°41' E 020°12'0 0.0
2016-May-23 03:33N 54°41' E 020°12'0 0.0
2016-May-23 02:33N 54°41' E 020°12'0 0.0
2016-May-23 01:33N 54°41' E 020°12'0 0.0
2016-May-23 00:33N 54°41' E 020°12'0 0.0
2016-May-22 23:33N 54°41' E 020°12'0 0.0
2016-May-22 22:33N 54°41' E 020°12'0 0.0
2016-May-22 14:24N 54°41' E 020°12'0 0.0
2016-May-22 13:27N 54°41' E 020°12'0 0.0
2016-May-22 12:27N 54°41' E 020°12'0 0.0
2016-May-22 10:30N 54°41' E 020°12'0 0.0
2016-May-22 09:33N 54°41' E 020°12'0 0.0
2016-May-22 08:33N 54°41' E 020°12'0 0.0
2016-May-22 07:24N 54°41' E 020°12'0 0.0
2016-May-22 06:18N 54°41' E 020°12'0 0.0
2016-May-22 05:30N 54°41' E 020°12'0 0.0
2016-May-22 02:33N 54°41' E 020°12'0 0.0
2016-May-22 01:33N 54°41' E 020°12'0 0.0
2016-May-22 00:33N 54°41' E 020°12'0 0.0
2016-May-21 23:33N 54°41' E 020°12'0 0.0
2016-May-21 22:33N 54°41' E 020°12'0 0.0
2016-May-21 21:24N 54°41' E 020°12'0 0.0
2016-May-21 20:15N 54°41' E 020°12'0 0.0
2016-May-21 19:18N 54°41' E 020°12'0 0.0
2016-May-21 18:30N 54°41' E 020°12'0 0.0
2016-May-21 17:33N 54°41' E 020°12'0 0.3
2016-May-21 16:19N 54°41' E 020°13'0 0.0
2016-May-21 15:32N 54°41' E 020°13'0 0.0
2016-May-21 14:34N 54°41' E 020°13'0 0.0
2016-May-21 13:33N 54°41' E 020°13'0 0.0
2016-May-21 12:33N 54°41' E 020°13'0 0.0
2016-May-21 11:34N 54°41' E 020°13'0 0.0
2016-May-21 10:32N 54°41' E 020°13'0 0.0
2016-May-21 09:23N 54°41' E 020°13'0 0.0
2016-May-21 06:32N 54°41' E 020°13'0 0.0
2016-May-21 05:32N 54°41' E 020°13'0 0.0
2016-May-21 04:33N 54°41' E 020°13'0 0.0
2016-May-21 03:24N 54°41' E 020°13'0 0.0
2016-May-21 02:33N 54°41' E 020°13'0 0.0
2016-May-21 01:34N 54°41' E 020°13'0 0.0
2016-May-21 00:33N 54°41' E 020°13'0 0.0
2016-May-20 23:34N 54°41' E 020°13'0 0.0
2016-May-20 22:33N 54°41' E 020°13'0 0.0
2016-May-20 21:34N 54°41' E 020°13'0 0.0
2016-May-20 20:34N 54°41' E 020°13'0 0.0
2016-May-20 19:33N 54°41' E 020°13'0 0.0
2016-May-20 18:33N 54°41' E 020°13'0 0.0
2016-May-20 17:33N 54°41' E 020°13'0 0.0
2016-May-20 16:34N 54°41' E 020°13'0 0.0
2016-May-20 15:14N 54°41' E 020°13'0 0.0
2016-May-20 14:34N 54°41' E 020°13'0 0.0
2016-May-20 13:33N 54°41' E 020°13'0 0.0
2016-May-20 12:29N 54°41' E 020°13'0 0.0
2016-May-20 11:34N 54°41' E 020°13'0 0.0
2016-May-20 09:21N 54°41' E 020°13'0 0.0
2016-May-20 08:28N 54°41' E 020°13'0 0.0
2016-May-20 01:33N 54°41' E 020°13'0 0.0
2016-May-20 00:33N 54°41' E 020°13'0 0.0
2016-May-19 07:33N 54°41' E 020°13'0 0.0
2016-May-19 06:33N 54°41' E 020°13'0 0.0
2016-May-19 05:33N 54°41' E 020°13'0 0.0
2016-May-19 04:33N 54°41' E 020°13'0 0.0
2016-May-19 03:34N 54°41' E 020°13'0 0.0
2016-May-19 02:33N 54°41' E 020°13'0 0.0
2016-May-19 01:34N 54°41' E 020°13'0 0.0
2016-May-19 00:34N 54°41' E 020°13'0 0.0
2016-May-18 23:33N 54°41' E 020°13'0 0.0
2016-May-18 22:33N 54°41' E 020°13'0 0.0
2016-May-18 21:33N 54°41' E 020°13'0 0.0
2016-May-18 20:32N 54°41' E 020°13'0 0.0
2016-May-18 19:22N 54°41' E 020°13'0 0.0
2016-May-18 18:21N 54°41' E 020°13'0 0.0
2016-May-18 17:34N 54°41' E 020°13'4 3.5
2016-May-18 16:29N 54°39' E 020°07'6 6.3
2016-May-18 15:34N 54°38' E 019°57'5 5.3
2016-May-18 14:34N 54°39' E 019°48'1 1.1
2016-May-18 13:31N 54°38' E 019°48'0 0.0
2016-May-18 12:25N 54°38' E 019°48'0 0.0
2016-May-18 11:28N 54°38' E 019°48'0 0.0
2016-May-18 10:28N 54°38' E 019°48'0 0.0
2016-May-18 09:31N 54°38' E 019°48'0 0.0
2016-May-18 08:34N 54°38' E 019°48'0 0.0
2016-May-18 07:31N 54°38' E 019°48'0 0.0
2016-May-18 06:31N 54°38' E 019°48'0 0.0
2016-May-18 05:28N 54°38' E 019°48'0 0.0
2016-May-18 04:25N 54°38' E 019°48'0 0.0
2016-May-18 03:31N 54°38' E 019°48'0 0.0
2016-May-18 02:31N 54°38' E 019°48'0 0.0
2016-May-18 01:31N 54°38' E 019°48'0 0.0
2016-May-18 00:31N 54°38' E 019°48'0 0.0
2016-May-17 23:31N 54°38' E 019°48'0 0.0
2016-May-17 22:31N 54°38' E 019°48'0 0.0
2016-May-17 21:25N 54°38' E 019°48'0 0.0
2016-May-17 20:31N 54°38' E 019°48'0 0.0
2016-May-17 17:31N 54°38' E 019°47'8 8.2
2016-May-17 16:34N 54°44' E 019°38'1313.3
2016-May-17 15:33N 54°50' E 019°17'1313.4
2016-May-17 14:33N 54°54' E 018°55'1413.8
2016-May-17 13:33N 54°58' E 018°32'1413.7
2016-May-17 12:33N 54°57' E 018°09'1413.5
2016-May-17 11:33N 54°56' E 017°45'  
Track history (hours):
 
Tides and Currents Weather Stations Pressure Air Temp Water Temp Dewpoint Dewpoint Depression Visibility Wind Speed Wind Dir Waves Ship Positions

Cielo Di Vaiano

Last reported at 2016-May-27 08:33 UTC. Time now 2016-May-27 08:33 UTC.
Position N 54°56' E 013°23'.

Length 183 m; draft 10.7 m.

Type: Cargo ship. MMSI: 636015421.

Date/timePositionNaut miles runAvg speedWind from/ knotsBaromVisibWave heightAir tempDewpointWater temp
2016-May-27 08:33N 54°56' E 013°23'1312.7
2016-May-27 07:33N 55°00' E 013°44'1212.3
2016-May-27 06:33N 55°05' E 014°04'1212.0
2016-May-27 05:33N 55°14' E 014°16'1312.8
2016-May-27 04:33N 55°24' E 014°30'1312.7
2016-May-27 03:33N 55°32' E 014°49'1313.0
2016-May-27 02:33N 55°38' E 015°09'1312.8
2016-May-27 01:33N 55°41' E 015°31'1312.7
2016-May-27 00:31N 55°44' E 015°54'3712.4
2016-May-26 21:34N 55°53' E 016°57'1212.4
2016-May-26 20:33N 55°55' E 017°19'1212.3
2016-May-26 19:33N 55°58' E 017°40'1212.2
2016-May-26 18:33N 55°56' E 018°02'1312.3
2016-May-26 17:31N 55°53' E 018°24'1212.4
2016-May-26 16:33N 55°50' E 018°44'82 3.9
2016-May-25 19:19N 55°40' E 021°09'0 0.0
2016-May-25 18:30N 55°40' E 021°09'0 0.0
2016-May-25 17:33N 55°40' E 021°09'0 0.0
2016-May-25 16:30N 55°40' E 021°09'0 0.0
2016-May-25 15:33N 55°40' E 021°09'0 0.0
2016-May-25 14:33N 55°40' E 021°09'0 0.0
2016-May-25 13:27N 55°40' E 021°09'0 0.0
2016-May-25 12:34N 55°40' E 021°09'63 2.7
2016-May-24 13:33N 55°05' E 019°38'1413.6
2016-May-24 12:33N 54°51' E 019°38'1312.5
2016-May-24 11:33N 54°40' E 019°49'8 7.4
2016-May-24 10:31N 54°38' E 020°02'7 6.7
2016-May-24 09:31N 54°41' E 020°12'0 0.0
2016-May-24 08:12N 54°41' E 020°12'0 0.0
2016-May-24 07:30N 54°41' E 020°12'0 0.0
2016-May-24 06:33N 54°41' E 020°12'0 0.0
2016-May-24 05:33N 54°41' E 020°12'0 0.0
2016-May-24 04:33N 54°41' E 020°12'0 0.0
2016-May-24 03:33N 54°41' E 020°12'0 0.0
2016-May-24 02:33N 54°41' E 020°12'0 0.0
2016-May-24 01:30N 54°41' E 020°12'0 0.0
2016-May-24 00:33N 54°41' E 020°12'0 0.0
2016-May-23 23:33N 54°41' E 020°12'0 0.0
2016-May-23 22:33N 54°41' E 020°12'0 0.0
2016-May-23 21:33N 54°41' E 020°12'0 0.0
2016-May-23 08:15N 54°41' E 020°12'0 0.0
2016-May-23 07:30N 54°41' E 020°12'0 0.0
2016-May-23 06:30N 54°41' E 020°12'0 0.0
2016-May-23 05:33N 54°41' E 020°12'0 0.0
2016-May-23 04:33N 54°41' E 020°12'0 0.0
2016-May-23 03:33N 54°41' E 020°12'0 0.0
2016-May-23 02:33N 54°41' E 020°12'0 0.0
2016-May-23 01:33N 54°41' E 020°12'0 0.0
2016-May-23 00:33N 54°41' E 020°12'0 0.0
2016-May-22 23:33N 54°41' E 020°12'0 0.0
2016-May-22 22:33N 54°41' E 020°12'0 0.0
2016-May-22 14:24N 54°41' E 020°12'0 0.0
2016-May-22 13:27N 54°41' E 020°12'0 0.0
2016-May-22 12:27N 54°41' E 020°12'0 0.0
2016-May-22 10:30N 54°41' E 020°12'0 0.0
2016-May-22 09:33N 54°41' E 020°12'0 0.0
2016-May-22 08:33N 54°41' E 020°12'0 0.0
2016-May-22 07:24N 54°41' E 020°12'0 0.0
2016-May-22 06:18N 54°41' E 020°12'0 0.0
2016-May-22 05:30N 54°41' E 020°12'0 0.0
2016-May-22 02:33N 54°41' E 020°12'0 0.0
2016-May-22 01:33N 54°41' E 020°12'0 0.0
2016-May-22 00:33N 54°41' E 020°12'0 0.0
2016-May-21 23:33N 54°41' E 020°12'0 0.0
2016-May-21 22:33N 54°41' E 020°12'0 0.0
2016-May-21 21:24N 54°41' E 020°12'0 0.0
2016-May-21 20:15N 54°41' E 020°12'0 0.0
2016-May-21 19:18N 54°41' E 020°12'0 0.0
2016-May-21 18:30N 54°41' E 020°12'0 0.0
2016-May-21 17:33N 54°41' E 020°12'0 0.3
2016-May-21 16:19N 54°41' E 020°13'0 0.0
2016-May-21 15:32N 54°41' E 020°13'0 0.0
2016-May-21 14:34N 54°41' E 020°13'0 0.0
2016-May-21 13:33N 54°41' E 020°13'0 0.0
2016-May-21 12:33N 54°41' E 020°13'0 0.0
2016-May-21 11:34N 54°41' E 020°13'0 0.0
2016-May-21 10:32N 54°41' E 020°13'0 0.0
2016-May-21 09:23N 54°41' E 020°13'0 0.0
2016-May-21 06:32N 54°41' E 020°13'0 0.0
2016-May-21 05:32N 54°41' E 020°13'0 0.0
2016-May-21 04:33N 54°41' E 020°13'0 0.0
2016-May-21 03:24N 54°41' E 020°13'0 0.0
2016-May-21 02:33N 54°41' E 020°13'0 0.0
2016-May-21 01:34N 54°41' E 020°13'0 0.0
2016-May-21 00:33N 54°41' E 020°13'0 0.0
2016-May-20 23:34N 54°41' E 020°13'0 0.0
2016-May-20 22:33N 54°41' E 020°13'0 0.0
2016-May-20 21:34N 54°41' E 020°13'0 0.0
2016-May-20 20:34N 54°41' E 020°13'0 0.0
2016-May-20 19:33N 54°41' E 020°13'0 0.0
2016-May-20 18:33N 54°41' E 020°13'0 0.0
2016-May-20 17:33N 54°41' E 020°13'0 0.0
2016-May-20 16:34N 54°41' E 020°13'0 0.0
2016-May-20 15:14N 54°41' E 020°13'0 0.0
2016-May-20 14:34N 54°41' E 020°13'0 0.0
2016-May-20 13:33N 54°41' E 020°13'0 0.0
2016-May-20 12:29N 54°41' E 020°13'0 0.0
2016-May-20 11:34N 54°41' E 020°13'0 0.0
2016-May-20 09:21N 54°41' E 020°13'0 0.0
2016-May-20 08:28N 54°41' E 020°13'0 0.0
2016-May-20 01:33N 54°41' E 020°13'0 0.0
2016-May-20 00:33N 54°41' E 020°13'0 0.0
2016-May-19 07:33N 54°41' E 020°13'0 0.0
2016-May-19 06:33N 54°41' E 020°13'0 0.0
2016-May-19 05:33N 54°41' E 020°13'0 0.0
2016-May-19 04:33N 54°41' E 020°13'0 0.0
2016-May-19 03:34N 54°41' E 020°13'0 0.0
2016-May-19 02:33N 54°41' E 020°13'0 0.0
2016-May-19 01:34N 54°41' E 020°13'0 0.0
2016-May-19 00:34N 54°41' E 020°13'0 0.0
2016-May-18 23:33N 54°41' E 020°13'0 0.0
2016-May-18 22:33N 54°41' E 020°13'0 0.0
2016-May-18 21:33N 54°41' E 020°13'0 0.0
2016-May-18 20:32N 54°41' E 020°13'0 0.0
2016-May-18 19:22N 54°41' E 020°13'0 0.0
2016-May-18 18:21N 54°41' E 020°13'0 0.0
2016-May-18 17:34N 54°41' E 020°13'4 3.5
2016-May-18 16:29N 54°39' E 020°07'6 6.3
2016-May-18 15:34N 54°38' E 019°57'5 5.3
2016-May-18 14:34N 54°39' E 019°48'1 1.1
2016-May-18 13:31N 54°38' E 019°48'0 0.0
2016-May-18 12:25N 54°38' E 019°48'0 0.0
2016-May-18 11:28N 54°38' E 019°48'0 0.0
2016-May-18 10:28N 54°38' E 019°48'0 0.0
2016-May-18 09:31N 54°38' E 019°48'0 0.0
2016-May-18 08:34N 54°38' E 019°48'0 0.0
2016-May-18 07:31N 54°38' E 019°48'0 0.0
2016-May-18 06:31N 54°38' E 019°48'0 0.0
2016-May-18 05:28N 54°38' E 019°48'0 0.0
2016-May-18 04:25N 54°38' E 019°48'0 0.0
2016-May-18 03:31N 54°38' E 019°48'0 0.0
2016-May-18 02:31N 54°38' E 019°48'0 0.0
2016-May-18 01:31N 54°38' E 019°48'0 0.0
2016-May-18 00:31N 54°38' E 019°48'0 0.0
2016-May-17 23:31N 54°38' E 019°48'0 0.0
2016-May-17 22:31N 54°38' E 019°48'0 0.0
2016-May-17 21:25N 54°38' E 019°48'0 0.0
2016-May-17 20:31N 54°38' E 019°48'0 0.0
2016-May-17 17:31N 54°38' E 019°47'8 8.2
2016-May-17 16:34N 54°44' E 019°38'1313.3
2016-May-17 15:33N 54°50' E 019°17'1313.4
2016-May-17 14:33N 54°54' E 018°55'1413.8
2016-May-17 13:33N 54°58' E 018°32'1413.7
2016-May-17 12:33N 54°57' E 018°09'1413.5
2016-May-17 11:33N 54°56' E 017°45'  

Dump ship's entire track history